createdAt,value
2023-01-01T00:00:03.088Z,11.60
2023-01-01T00:02:36.423Z,11.70
2023-01-01T00:05:04.937Z,11.80
2023-01-01T00:07:31.623Z,11.70
2023-01-01T00:10:20.458Z,11.60
2023-01-01T00:12:48.155Z,11.60
2023-01-01T00:15:18.124Z,11.60
2023-01-01T00:17:44.751Z,11.70
2023-01-01T00:20:13.046Z,11.80
2023-01-01T00:22:56.842Z,11.80
2023-01-01T00:25:24.138Z,11.90
2023-01-01T00:28:01.009Z,12.00
2023-01-01T00:30:27.657Z,12.00
2023-01-01T00:32:56.287Z,12.00
2023-01-01T00:35:27.008Z,12.00
2023-01-01T00:37:55.116Z,11.90
2023-01-01T00:40:22.097Z,11.90
2023-01-01T00:42:48.684Z,12.20
2023-01-01T00:45:20.817Z,12.30
2023-01-01T00:47:48.369Z,12.40
2023-01-01T00:50:15.073Z,12.30
2023-01-01T00:52:41.916Z,12.50
2023-01-01T00:55:09.096Z,12.50
2023-01-01T00:57:35.734Z,12.40
2023-01-01T01:00:02.540Z,12.30
2023-01-01T01:02:29.443Z,12.30
2023-01-01T01:04:56.248Z,12.30
2023-01-01T01:07:25.147Z,12.30
2023-01-01T01:09:51.854Z,12.30
2023-01-01T01:12:21.056Z,12.30
2023-01-01T01:14:47.728Z,12.30
2023-01-01T01:17:14.411Z,12.10
2023-01-01T01:19:41.016Z,12.00
2023-01-01T01:22:09.902Z,12.00
2023-01-01T01:24:36.567Z,11.90
2023-01-01T01:27:03.309Z,11.80
2023-01-01T01:29:29.911Z,11.70
2023-01-01T01:31:56.587Z,11.60
2023-01-01T01:34:27.756Z,11.50
2023-01-01T01:36:55.640Z,11.50
2023-01-01T01:39:22.480Z,11.50
2023-01-01T01:41:49.109Z,11.50
2023-01-01T01:44:49.892Z,11.40
2023-01-01T01:47:42.662Z,11.40
2023-01-01T01:50:19.692Z,11.30
2023-01-01T01:53:04.871Z,11.20
2023-01-01T01:55:34.076Z,11.60
2023-01-01T01:58:01.895Z,11.70
2023-01-01T02:00:28.747Z,11.80
2023-01-01T02:03:02.339Z,11.90
2023-01-01T02:05:30.586Z,11.80
2023-01-01T02:07:58.692Z,11.70
2023-01-01T02:10:26.195Z,11.60
2023-01-01T02:12:52.911Z,11.40
2023-01-01T02:15:21.364Z,11.20
2023-01-01T02:18:02.076Z,11.40
2023-01-01T02:20:48.265Z,11.60
2023-01-01T02:23:26.313Z,11.90
2023-01-01T02:26:10.549Z,12.20
2023-01-01T02:28:58.951Z,12.40
2023-01-01T02:31:31.518Z,12.80
2023-01-01T02:34:03.060Z,12.90
2023-01-01T02:36:32.951Z,13.10
2023-01-01T02:39:02.751Z,13.30
2023-01-01T02:41:39.821Z,13.50
2023-01-01T02:46:33.340Z,13.40
2023-01-01T02:49:04.729Z,13.20
2023-01-01T02:52:04.409Z,13.10
2023-01-01T02:54:45.122Z,12.90
2023-01-01T02:57:29.717Z,13.00
2023-01-01T03:00:40.888Z,12.90
2023-01-01T03:03:28.650Z,12.80
2023-01-01T03:06:27.058Z,12.70
2023-01-01T03:09:16.036Z,12.50
2023-01-01T03:12:02.982Z,12.30
2023-01-01T03:14:41.701Z,12.10
2023-01-01T03:17:21.267Z,11.90
2023-01-01T03:19:49.563Z,11.70
2023-01-01T03:22:17.471Z,11.70
2023-01-01T03:24:58.276Z,11.60
2023-01-01T03:27:41.257Z,11.40
2023-01-01T03:30:11.553Z,11.20
2023-01-01T03:33:03.565Z,11.00
2023-01-01T03:35:47.063Z,11.00
2023-01-01T03:38:20.144Z,10.80
2023-01-01T03:40:51.313Z,10.60
2023-01-01T03:43:26.566Z,10.50
2023-01-01T03:45:54.368Z,10.50
2023-01-01T03:48:21.093Z,10.20
2023-01-01T03:50:58.412Z,10.10
2023-01-01T03:53:43.243Z,9.90
2023-01-01T03:56:49.901Z,9.80
2023-01-01T03:59:22.662Z,9.90
2023-01-01T04:01:53.455Z,10.00
2023-01-01T04:04:20.482Z,9.80
2023-01-01T04:06:47.342Z,9.80
2023-01-01T04:09:17.862Z,9.40
2023-01-01T04:12:01.529Z,9.40
2023-01-01T04:14:29.397Z,9.20
2023-01-01T04:16:57.476Z,9.10
2023-01-01T04:19:24.018Z,9.20
2023-01-01T04:21:50.684Z,9.10
2023-01-01T04:24:17.453Z,9.00
2023-01-01T04:26:44.264Z,8.90
2023-01-01T04:29:10.871Z,8.80
2023-01-01T04:31:37.671Z,8.80
2023-01-01T04:34:04.532Z,8.70
2023-01-01T04:36:31.111Z,8.70
2023-01-01T04:38:57.688Z,8.60
2023-01-01T04:41:24.304Z,8.80
2023-01-01T04:43:50.870Z,8.80
2023-01-01T04:46:21.751Z,8.80
2023-01-01T04:48:48.541Z,8.80
2023-01-01T04:51:16.434Z,8.80
2023-01-01T04:53:43.355Z,8.90
2023-01-01T04:56:13.069Z,8.90
2023-01-01T04:58:41.753Z,8.90
2023-01-01T05:01:14.174Z,9.10
2023-01-01T05:03:40.788Z,9.20
2023-01-01T05:06:10.518Z,9.20
2023-01-01T05:08:39.360Z,9.30
2023-01-01T05:11:18.529Z,9.40
2023-01-01T05:13:47.748Z,9.40
2023-01-01T05:16:18.008Z,9.50
2023-01-01T05:18:45.044Z,9.50
2023-01-01T05:21:14.000Z,9.50
2023-01-01T05:23:40.739Z,9.70
2023-01-01T05:26:14.761Z,9.90
2023-01-01T05:28:42.372Z,10.00
2023-01-01T05:31:13.536Z,10.00
2023-01-01T05:33:41.028Z,10.20
2023-01-01T05:36:09.875Z,10.30
2023-01-01T05:38:36.809Z,10.50
2023-01-01T05:41:08.157Z,10.60
2023-01-01T05:43:35.307Z,10.70
2023-01-01T05:46:04.128Z,10.80
2023-01-01T05:48:32.459Z,10.70
2023-01-01T05:51:13.657Z,10.60
2023-01-01T05:53:40.474Z,10.50
2023-01-01T05:56:07.552Z,10.60
2023-01-01T05:58:35.203Z,10.50
2023-01-01T06:01:13.872Z,10.40
2023-01-01T06:03:41.753Z,10.30
2023-01-01T06:06:11.295Z,10.20
2023-01-01T06:08:38.051Z,10.20
2023-01-01T06:11:07.122Z,10.00
2023-01-01T06:13:34.103Z,10.00
2023-01-01T06:16:02.291Z,10.10
2023-01-01T06:18:34.312Z,10.20
2023-01-01T06:21:15.634Z,10.20
2023-01-01T06:23:42.870Z,10.30
2023-01-01T06:26:18.910Z,10.30
2023-01-01T06:28:46.778Z,10.40
2023-01-01T06:31:16.280Z,10.40
2023-01-01T06:33:43.865Z,10.50
2023-01-01T06:36:12.942Z,10.60
2023-01-01T06:38:41.916Z,10.80
2023-01-01T06:41:12.024Z,10.80
2023-01-01T06:43:39.198Z,10.70
2023-01-01T06:46:19.382Z,10.70
2023-01-01T06:48:48.063Z,10.60
2023-01-01T06:51:20.333Z,10.50
2023-01-01T06:53:48.006Z,10.50
2023-01-01T06:56:16.289Z,10.60
2023-01-01T06:58:43.052Z,10.50
2023-01-01T07:01:14.797Z,10.50
2023-01-01T07:03:42.660Z,10.50
2023-01-01T07:06:10.181Z,10.50
2023-01-01T07:08:37.068Z,10.50
2023-01-01T07:11:04.324Z,10.50
2023-01-01T07:13:31.284Z,10.50
2023-01-01T07:15:58.351Z,10.50
2023-01-01T07:18:26.069Z,10.60
2023-01-01T07:20:58.044Z,10.50
2023-01-01T07:23:25.838Z,10.60
2023-01-01T07:25:53.650Z,10.50
2023-01-01T07:28:21.605Z,10.50
2023-01-01T07:30:49.006Z,10.60
2023-01-01T07:33:18.180Z,10.50
2023-01-01T07:35:45.781Z,10.50
2023-01-01T07:38:13.102Z,10.50
2023-01-01T07:40:40.432Z,10.50
2023-01-01T07:43:07.762Z,10.40
2023-01-01T07:45:35.256Z,10.50
2023-01-01T07:48:02.024Z,10.60
2023-01-01T07:50:31.011Z,10.60
2023-01-01T07:52:57.789Z,10.70
2023-01-01T07:55:24.398Z,10.70
2023-01-01T07:57:51.033Z,10.80
2023-01-01T08:00:21.024Z,10.80
2023-01-01T08:02:48.374Z,11.00
2023-01-01T08:05:15.188Z,11.10
2023-01-01T08:07:46.155Z,11.20
2023-01-01T08:10:12.828Z,11.20
2023-01-01T08:12:39.487Z,11.30
2023-01-01T08:15:06.883Z,11.30
2023-01-01T08:17:33.487Z,11.30
2023-01-01T08:20:00.081Z,11.20
2023-01-01T08:22:26.919Z,11.30
2023-01-01T08:24:53.485Z,11.30
2023-01-01T08:27:20.049Z,11.40
2023-01-01T08:29:46.693Z,11.40
2023-01-01T08:32:13.826Z,11.50
2023-01-01T08:34:40.629Z,11.40
2023-01-01T08:37:13.008Z,11.40
2023-01-01T08:39:39.934Z,11.40
2023-01-01T08:42:12.235Z,11.40
2023-01-01T08:44:39.199Z,11.30
2023-01-01T08:47:05.781Z,11.40
2023-01-01T08:49:32.745Z,11.50
2023-01-01T08:51:59.337Z,11.50
2023-01-01T08:54:25.905Z,11.60
2023-01-01T08:56:52.489Z,11.70
2023-01-01T08:59:19.137Z,11.80
2023-01-01T09:01:45.874Z,11.90
2023-01-01T09:04:15.802Z,11.90
2023-01-01T09:06:42.673Z,12.10
2023-01-01T09:09:09.271Z,12.20
2023-01-01T09:11:36.547Z,12.30
2023-01-01T09:14:03.158Z,12.30
2023-01-01T09:16:29.811Z,12.40
2023-01-01T09:18:56.493Z,12.50
2023-01-01T09:21:23.282Z,12.60
2023-01-01T09:23:49.881Z,12.60
2023-01-01T09:26:16.479Z,12.50
2023-01-01T09:28:43.213Z,12.60
2023-01-01T09:31:09.861Z,12.50
2023-01-01T09:33:36.497Z,12.50
2023-01-01T09:36:22.309Z,12.60
2023-01-01T09:38:52.727Z,12.70
2023-01-01T09:41:46.703Z,12.80
2023-01-01T09:44:35.070Z,12.90
2023-01-01T09:47:05.231Z,13.00
2023-01-01T09:49:35.241Z,13.60
2023-01-01T09:52:05.361Z,13.30
2023-01-01T09:54:42.829Z,13.40
2023-01-01T09:57:19.571Z,13.50
2023-01-01T09:59:46.973Z,13.70
2023-01-01T10:02:51.499Z,13.80
2023-01-01T10:05:42.996Z,13.90
2023-01-01T10:08:31.019Z,14.00
2023-01-01T10:11:09.532Z,14.10
2023-01-01T10:13:42.513Z,14.20
2023-01-01T10:16:25.464Z,14.30
2023-01-01T10:18:56.588Z,14.30
2023-01-01T10:21:36.016Z,14.40
2023-01-01T10:24:11.546Z,14.50
2023-01-01T10:26:41.175Z,14.60
2023-01-01T10:29:22.656Z,14.70
2023-01-01T10:31:49.675Z,14.80
2023-01-01T10:34:28.445Z,14.90
2023-01-01T10:36:57.376Z,15.00
2023-01-01T10:39:24.583Z,15.10
2023-01-01T10:41:51.946Z,15.20
2023-01-01T10:44:33.497Z,15.20
2023-01-01T10:47:10.640Z,15.30
2023-01-01T10:49:55.333Z,15.40
2023-01-01T10:52:47.523Z,15.50
2023-01-01T10:55:23.203Z,15.60
2023-01-01T10:57:49.812Z,15.70
2023-01-01T11:03:21.110Z,15.90
2023-01-01T11:06:17.998Z,16.00
2023-01-01T11:08:50.279Z,16.10
2023-01-01T11:11:28.403Z,16.10
2023-01-01T11:13:58.610Z,16.00
2023-01-01T11:19:01.966Z,16.10
2023-01-01T11:21:28.637Z,16.20
